createdAt,value
2023-04-13T00:04:39.232Z,0.70
2023-04-13T00:09:41.670Z,1.85
2023-04-13T00:14:43.917Z,1.20
2023-04-13T00:19:47.899Z,0.52
2023-04-13T00:24:49.709Z,2.78
2023-04-13T00:29:51.473Z,1.27
2023-04-13T00:34:53.126Z,0.35
2023-04-13T00:39:55.168Z,0.93
2023-04-13T00:44:56.739Z,1.58
2023-04-13T00:50:01.371Z,1.27
2023-04-13T00:55:02.983Z,0.88
2023-04-13T01:00:12.775Z,1.95
2023-04-13T01:05:16.298Z,0.80
2023-04-13T01:10:36.517Z,0.70
2023-04-13T01:15:57.425Z,1.58
2023-04-13T01:21:00.157Z,1.38
2023-04-13T01:26:08.496Z,3.25
2023-04-13T01:31:13.832Z,2.85
2023-04-13T01:36:16.838Z,0.85
2023-04-13T01:41:18.982Z,1.88
2023-04-13T01:46:26.490Z,0.73
2023-04-13T01:56:34.466Z,3.00
2023-04-13T02:01:38.033Z,1.85
2023-04-13T02:06:39.530Z,2.03
2023-04-13T02:11:41.000Z,4.97
2023-04-13T02:16:42.404Z,1.55
2023-04-13T02:21:43.856Z,1.35
2023-04-13T02:26:45.355Z,0.55
2023-04-13T02:31:46.777Z,1.58
2023-04-13T02:36:48.457Z,1.83
2023-04-13T02:41:51.120Z,0.55
2023-04-13T02:46:52.501Z,0.88
2023-04-13T02:51:53.872Z,0.90
2023-04-13T02:56:55.964Z,0.70
2023-04-13T03:01:58.920Z,3.03
2023-04-13T03:07:00.358Z,1.23
2023-04-13T03:12:02.803Z,5.57
2023-04-13T03:17:04.505Z,0.73
2023-04-13T03:22:06.044Z,1.58
2023-04-13T03:27:07.522Z,2.58
2023-04-13T03:32:08.998Z,3.80
2023-04-13T03:37:11.606Z,2.22
2023-04-13T03:42:13.064Z,1.63
2023-04-13T03:47:14.495Z,5.15
2023-04-13T03:52:16.146Z,3.58
2023-04-13T03:57:17.529Z,2.63
2023-04-13T04:02:19.190Z,0.93
2023-04-13T04:07:23.272Z,2.42
2023-04-13T04:12:24.708Z,2.78
2023-04-13T04:17:28.253Z,2.40
2023-04-13T04:22:30.243Z,2.85
2023-04-13T04:27:37.774Z,1.20
2023-04-13T04:32:40.394Z,4.47
2023-04-13T04:37:41.789Z,8.60
2023-04-13T04:42:43.172Z,2.63
2023-04-13T04:47:44.741Z,1.55
2023-04-13T04:52:46.261Z,2.13
2023-04-13T04:57:49.781Z,4.05
2023-04-13T05:02:51.401Z,4.68
2023-04-13T05:07:53.097Z,1.40
2023-04-13T05:12:56.467Z,6.93
2023-04-13T05:17:58.669Z,4.00
2023-04-13T05:23:01.069Z,3.28
2023-04-13T05:28:02.469Z,4.07
2023-04-13T05:33:06.509Z,4.80
2023-04-13T05:38:08.218Z,2.47
2023-04-13T05:43:09.611Z,3.85
2023-04-13T05:48:11.100Z,3.88
2023-04-13T05:53:12.694Z,2.92
2023-04-13T05:58:14.073Z,5.38
2023-04-13T06:03:15.963Z,5.15
2023-04-13T06:08:17.549Z,7.00
2023-04-13T06:13:19.339Z,5.65
2023-04-13T06:18:20.714Z,6.03
2023-04-13T06:23:22.220Z,3.20
2023-04-13T06:28:28.901Z,4.50
2023-04-13T06:33:31.509Z,5.67
2023-04-13T06:38:32.899Z,4.57
2023-04-13T06:43:34.339Z,3.97
2023-04-13T06:48:35.916Z,2.67
2023-04-13T06:53:37.347Z,7.75
2023-04-13T06:58:38.688Z,5.22
2023-04-13T07:03:40.387Z,5.20
2023-04-13T07:08:42.047Z,3.15
2023-04-13T07:13:43.553Z,11.13
2023-04-13T07:18:44.918Z,8.02
2023-04-13T07:23:46.334Z,5.10
2023-04-13T07:28:47.754Z,4.38
2023-04-13T07:33:49.174Z,3.33
2023-04-13T07:38:50.579Z,8.35
2023-04-13T07:43:52.024Z,8.00
2023-04-13T07:48:53.953Z,6.53
2023-04-13T07:53:55.584Z,3.83
2023-04-13T07:58:57.243Z,4.45
2023-04-13T08:03:59.047Z,2.42
2023-04-13T08:09:00.883Z,2.42
2023-04-13T08:14:02.469Z,4.47
2023-04-13T08:19:03.875Z,7.47
2023-04-13T08:24:06.280Z,3.70
2023-04-13T08:29:07.812Z,2.28
2023-04-13T08:34:11.525Z,4.15
2023-04-13T08:39:13.530Z,3.17
2023-04-13T08:44:16.103Z,2.80
2023-04-13T08:49:18.011Z,5.47
2023-04-13T08:54:19.377Z,4.53
2023-04-13T08:59:22.486Z,5.55
2023-04-13T09:04:31.834Z,3.75
2023-04-13T09:09:38.080Z,2.35
2023-04-13T09:14:40.990Z,2.50
2023-04-13T09:19:42.370Z,3.28
2023-04-13T09:24:44.106Z,6.00
2023-04-13T09:29:49.510Z,4.53
2023-04-13T09:35:20.411Z,2.65
2023-04-13T09:40:22.228Z,2.88
2023-04-13T09:45:23.765Z,3.05
2023-04-13T09:50:29.201Z,3.90
2023-04-13T09:55:32.910Z,1.85
2023-04-13T10:00:35.257Z,4.78
2023-04-13T10:05:50.622Z,3.33
2023-04-13T10:11:01.601Z,2.67
2023-04-13T10:16:36.851Z,2.30
2023-04-13T10:21:41.024Z,1.95
2023-04-13T10:26:45.169Z,6.88
2023-04-13T10:31:48.353Z,1.15
2023-04-13T10:36:51.627Z,0.88
2023-04-13T10:42:06.716Z,1.40
2023-04-13T10:47:08.531Z,1.10
2023-04-13T10:52:11.497Z,1.15
2023-04-13T10:57:13.398Z,1.95
2023-04-13T11:02:16.590Z,3.38
2023-04-13T11:07:21.818Z,0.77
2023-04-13T11:12:23.234Z,2.25
2023-04-13T11:17:24.764Z,0.20
2023-04-13T11:22:28.529Z,0.85
2023-04-13T11:27:29.890Z,1.38
2023-04-13T11:32:35.136Z,1.38
2023-04-13T11:37:44.277Z,2.42
2023-04-13T11:42:47.755Z,0.68
2023-04-13T11:47:51.059Z,1.17
2023-04-13T11:52:57.028Z,1.65
2023-04-13T11:57:58.662Z,0.60
2023-04-13T12:03:02.855Z,0.57
2023-04-13T12:08:06.280Z,1.85
2023-04-13T12:18:23.620Z,2.25
2023-04-13T12:23:29.711Z,0.20
2023-04-13T12:28:35.238Z,0.50
2023-04-13T12:33:37.108Z,0.90
2023-04-13T12:38:39.134Z,1.48
2023-04-13T12:43:40.878Z,0.40
2023-04-13T12:48:42.702Z,0.47
2023-04-13T12:53:44.157Z,2.90
2023-04-13T12:58:45.560Z,0.95
2023-04-13T13:03:47.038Z,0.68
2023-04-13T13:08:50.711Z,1.08
2023-04-13T13:13:52.168Z,0.05
2023-04-13T13:18:53.642Z,0.15
2023-04-13T13:23:55.264Z,0.43
2023-04-13T13:28:56.685Z,0.10
2023-04-13T13:33:58.048Z,0.93
2023-04-13T13:39:00.072Z,0.43
2023-04-13T13:44:01.730Z,0.05
2023-04-13T13:49:03.432Z,0.43
2023-04-13T13:54:04.998Z,0.00
2023-04-13T13:59:06.351Z,0.00
2023-04-13T14:04:07.928Z,0.20
2023-04-13T14:09:09.565Z,0.83
2023-04-13T14:14:20.965Z,0.40
2023-04-13T14:19:23.480Z,0.32
2023-04-13T14:24:26.487Z,1.15
2023-04-13T14:29:27.977Z,1.25
2023-04-13T14:34:29.419Z,0.03
2023-04-13T14:39:31.050Z,0.08
2023-04-13T14:44:32.441Z,0.17
2023-04-13T14:49:34.039Z,1.00
2023-04-13T14:54:35.496Z,1.52
2023-04-13T14:59:37.363Z,0.90
2023-04-13T15:04:42.368Z,1.33
2023-04-13T15:09:43.816Z,0.13
2023-04-13T15:14:46.632Z,0.25
2023-04-13T15:19:48.093Z,0.30
2023-04-13T15:24:49.540Z,0.68
2023-04-13T15:29:58.510Z,2.53
2023-04-13T15:34:59.915Z,1.13
2023-04-13T15:40:01.502Z,4.32
2023-04-13T15:45:03.320Z,0.20
2023-04-13T15:50:05.249Z,1.65
2023-04-13T15:55:07.787Z,0.38
2023-04-13T16:00:09.752Z,1.40
2023-04-13T16:05:12.612Z,0.80
2023-04-13T16:10:16.097Z,1.30
2023-04-13T16:15:19.293Z,1.15
2023-04-13T16:20:21.868Z,3.92
2023-04-13T16:25:23.789Z,2.38
2023-04-13T16:30:25.188Z,1.35
2023-04-13T16:35:26.705Z,5.10
2023-04-13T16:40:28.245Z,0.73
2023-04-13T16:45:29.618Z,1.73
2023-04-13T16:50:32.382Z,1.13
2023-04-13T16:55:34.081Z,3.25
2023-04-13T17:00:35.761Z,2.67
2023-04-13T17:05:37.353Z,0.57
2023-04-13T17:10:38.869Z,1.15
2023-04-13T17:15:40.537Z,1.02
2023-04-13T17:20:42.107Z,3.00
2023-04-13T17:25:43.637Z,1.48
2023-04-13T17:30:45.159Z,2.60
2023-04-13T17:35:46.557Z,2.58
2023-04-13T17:40:47.998Z,6.15
2023-04-13T17:45:49.415Z,5.22
2023-04-13T17:50:51.568Z,3.17
2023-04-13T17:55:52.966Z,3.83
2023-04-13T18:00:54.336Z,5.13
2023-04-13T18:05:55.809Z,1.80
2023-04-13T18:10:59.284Z,6.88
2023-04-13T18:16:01.264Z,2.75
2023-04-13T18:21:02.658Z,1.45
2023-04-13T18:26:04.190Z,2.10
2023-04-13T18:31:05.680Z,5.70
2023-04-13T18:36:07.354Z,3.63
2023-04-13T18:41:09.046Z,3.80
2023-04-13T18:46:11.791Z,2.25
2023-04-13T18:51:13.319Z,5.70
2023-04-13T18:56:14.688Z,3.80
2023-04-13T19:01:19.940Z,2.33
2023-04-13T19:06:21.563Z,3.55
2023-04-13T19:11:27.317Z,1.65
2023-04-13T19:16:28.975Z,3.50
2023-04-13T19:21:31.099Z,3.97
2023-04-13T19:26:32.524Z,13.88
2023-04-13T19:31:37.738Z,11.27
2023-04-13T19:36:40.383Z,5.07
2023-04-13T19:41:42.883Z,7.50
2023-04-13T19:46:44.506Z,5.55
2023-04-13T19:51:46.425Z,4.72
2023-04-13T19:56:48.249Z,7.00
2023-04-13T20:01:49.777Z,5.47
2023-04-13T20:06:51.742Z,2.58
2023-04-13T20:11:53.428Z,5.57
2023-04-13T20:16:54.841Z,4.97
2023-04-13T20:21:57.706Z,5.55
2023-04-13T20:26:59.130Z,8.10
2023-04-13T20:32:00.547Z,5.03
2023-04-13T20:37:02.075Z,5.03
2023-04-13T20:42:08.137Z,5.68
2023-04-13T20:47:13.260Z,6.63
2023-04-13T20:52:17.872Z,7.30
2023-04-13T20:57:20.039Z,7.70
2023-04-13T21:02:21.902Z,11.88
2023-04-13T21:07:23.963Z,5.45
2023-04-13T21:12:26.498Z,10.82
2023-04-13T21:17:27.972Z,6.68
2023-04-13T21:22:29.970Z,7.20
2023-04-13T21:27:31.743Z,4.55
2023-04-13T21:32:33.333Z,5.07
2023-04-13T21:37:34.909Z,6.35
2023-04-13T21:42:37.122Z,6.32
2023-04-13T21:47:38.654Z,6.30
2023-04-13T21:52:40.440Z,7.13
2023-04-13T21:57:41.840Z,4.45
2023-04-13T22:02:43.721Z,4.88
2023-04-13T22:07:45.220Z,6.18
2023-04-13T22:12:46.648Z,3.20
2023-04-13T22:17:48.860Z,5.43
2023-04-13T22:22:50.293Z,3.33
2023-04-13T22:27:53.374Z,3.10
2023-04-13T22:32:56.719Z,4.60
2023-04-13T22:37:58.241Z,8.48
2023-04-13T22:42:59.631Z,6.93
2023-04-13T22:48:01.223Z,6.72
2023-04-13T22:53:02.698Z,5.57
2023-04-13T22:58:04.271Z,9.15
2023-04-13T23:03:05.880Z,7.60
2023-04-13T23:08:07.608Z,8.60
2023-04-13T23:13:09.452Z,11.45
2023-04-13T23:18:10.918Z,10.68
2023-04-13T23:23:12.312Z,7.45
2023-04-13T23:28:13.731Z,7.78
2023-04-13T23:33:15.474Z,10.35
2023-04-13T23:38:16.879Z,8.23
2023-04-13T23:43:18.260Z,7.35
2023-04-13T23:48:21.457Z,7.57
2023-04-13T23:53:23.509Z,10.15
2023-04-13T23:58:24.869Z,8.00
